• Join FlightAware (Why Join?)
  • Login
  • US Flag 
03:26AM EDT


 

Airport Tracker/Info


-or-


 

Live Flight TrackerFlight Track Log ✈ N1045F ✈ 27-Apr-2013 ✈ KSLG - KBTL

Flight Track Log - Related Links

Times and Time Zones

All times are in EDT time to prevent confusion due to time zone crossing. See the N1045F flight status page for this flight to view local times or setup timezone preferences in your user account.

Time Position Orientation Groundspeed Altitude Reporting Facility
EDT Latitude Longitude Course Direction KTS MPH feet Rate Location/Type
04:38PM 36.2286 -94.4828 North 110 127 2,200  Level Kansas City Center
04:39PM 36.2586 -94.4775 North 109 125 3,000 660 Climbing Kansas City Center
04:40PM 36.2872 -94.4708 11° North 107 123 3,600 480 Climbing Kansas City Center
04:41PM 36.3153 -94.4475 34° Northeast 120 138 4,000 480 Climbing Kansas City Center
04:42PM 36.3375 -94.4156 49° Northeast 124 143 4,600 540 Climbing Kansas City Center
04:43PM 36.3600 -94.3858 47° Northeast 121 139 5,200 480 Climbing Kansas City Center
04:44PM 36.3819 -94.3550 49° Northeast 121 139 5,700 360 Climbing Kansas City Center
04:45PM 36.4111 -94.3150 48° Northeast 124 143 6,000 120 Climbing Kansas City Center
04:46PM 36.4394 -94.2767 47° Northeast 136 157 6,000  Level Kansas City Center
04:47PM 36.4700 -94.2358 47° Northeast 149 171 6,000 -60 Level Kansas City Center
04:48PM 36.5017 -94.1942 47° Northeast 158 182 5,900 -60 Descending Kansas City Center
04:49PM 36.5333 -94.1517 47° Northeast 163 188 5,900  Level Kansas City Center
04:50PM 36.5647 -94.1094 47° Northeast 165 190 5,900  Level Kansas City Center
04:51PM 36.5964 -94.0672 47° Northeast 166 191 5,900  Level Kansas City Center
04:52PM 36.6333 -94.0161 48° Northeast 166 191 6,000 180 Climbing Kansas City Center
04:53PM 36.6639 -93.9772 46° Northeast 162 186 6,300 300 Climbing Kansas City Center
04:54PM 36.6919 -93.9397 47° Northeast 156 180 6,700 300 Climbing Kansas City Center
04:56PM 36.7175 -93.9036 49° Northeast 148 170 7,000 120 Climbing Kansas City Center
04:57PM 36.7453 -93.8636 49° Northeast 148 170 7,000  Level Kansas City Center
04:58PM 36.7775 -93.8211 47° Northeast 156 180 7,000  Level Kansas City Center
04:59PM 36.8103 -93.7761 48° Northeast 165 190 7,000  Level Kansas City Center
05:00PM 36.8431 -93.7328 47° Northeast 170 196 7,000  Level Kansas City Center
05:01PM 36.8811 -93.6831 46° Northeast 173 199 7,000  Level Kansas City Center
05:02PM 36.9142 -93.6378 48° Northeast 175 201 7,000  Level Kansas City Center
05:03PM 36.9461 -93.5928 48° Northeast 173 199 7,000  Level Kansas City Center
05:04PM 36.9792 -93.5517 45° Northeast 169 194 7,000  Level Kansas City Center
05:05PM 37.0100 -93.5075 49° Northeast 168 193 7,000  Level Kansas City Center
05:06PM 37.0478 -93.4544 48° Northeast 169 194 7,000  Level Kansas City Center
05:07PM 37.0800 -93.4100 48° Northeast 171 197 7,000  Level Kansas City Center
05:08PM 37.1125 -93.3667 47° Northeast 171 197 7,000  Level Kansas City Center
05:09PM 37.1447 -93.3219 48° Northeast 171 197 7,000  Level Kansas City Center
05:10PM 37.1753 -93.2775 49° Northeast 170 196 7,000  Level Kansas City Center
05:11PM 37.2067 -93.2333 48° Northeast 169 194 7,000  Level Kansas City Center
05:12PM 37.2392 -93.1911 46° Northeast 169 194 7,000  Level Kansas City Center
05:13PM 37.2697 -93.1478 48° Northeast 167 192 7,000  Level Kansas City Center
05:14PM 37.3067 -93.0953 48° Northeast 166 191 7,000  Level Kansas City Center
05:15PM 37.3381 -93.0533 47° Northeast 165 190 7,000  Level Kansas City Center
05:16PM 37.3683 -93.0108 48° Northeast 165 190 7,000  Level Kansas City Center
05:17PM 37.3989 -92.9672 49° Northeast 165 190 7,000  Level Kansas City Center
05:18PM 37.4300 -92.9244 48° Northeast 165 190 7,000  Level Kansas City Center
05:19PM 37.4608 -92.8817 48° Northeast 165 190 7,000  Level Kansas City Center
05:20PM 37.4917 -92.8392 48° Northeast 164 189 7,000  Level Kansas City Center
05:21PM 37.5225 -92.7961 48° Northeast 164 189 7,000  Level Kansas City Center
05:22PM 37.5536 -92.7519 48° Northeast 166 191 7,000  Level Kansas City Center
05:23PM 37.5911 -92.6989 48° Northeast 167 192 7,000  Level Kansas City Center
05:24PM 37.6158 -92.6478 59° Northeast 168 193 7,000  Level Kansas City Center
05:25PM 37.6247 -92.5897 79° East 176 203 7,000  Level Kansas City Center
05:26PM 37.6247 -92.5292 90° East 175 201 7,000  Level Kansas City Center
05:27PM 37.6272 -92.4681 87° East 174 200 7,000  Level Kansas City Center
05:28PM 37.6297 -92.4064 87° East 175 201 7,000  Level Kansas City Center
05:29PM 37.6317 -92.3456 88° East 175 201 7,000  Level Kansas City Center
05:30PM 37.6331 -92.2850 88° East 174 200 7,000  Level Kansas City Center
05:31PM 37.6347 -92.2136 88° East 172 198 7,000  Level Kansas City Center
05:33PM 37.6425 -92.1586 80° East 170 196 7,000  Level Kansas City Center
05:34PM 37.6750 -92.1183 44° Northeast 165 190 7,000  Level Kansas City Center
05:35PM 37.7061 -92.0750 48° Northeast 166 191 7,000  Level Kansas City Center
05:36PM 37.7372 -92.0314 48° Northeast 167 192 7,000  Level Kansas City Center
05:37PM 37.7686 -91.9897 46° Northeast 166 191 7,000  Level Kansas City Center
05:38PM 37.7997 -91.9483 46° Northeast 164 189 7,000  Level Kansas City Center
05:39PM 37.8378 -91.8983 46° Northeast 164 189 7,000  Level Kansas City Center
05:40PM 37.8689 -91.8561 47° Northeast 165 190 7,000  Level Kansas City Center
05:41PM 37.9014 -91.8131 46° Northeast 168 193 7,000  Level Kansas City Center
05:42PM 37.9325 -91.7689 48° Northeast 168 193 7,000  Level Kansas City Center
05:43PM 37.9650 -91.7272 45° Northeast 167 192 7,000  Level Kansas City Center
05:44PM 37.9967 -91.6853 46° Northeast 165 190 7,000  Level Kansas City Center
05:45PM 38.0275 -91.6419 48° Northeast 165 190 7,000  Level Kansas City Center
05:46PM 38.0594 -91.5994 46° Northeast 166 191 7,000  Level Kansas City Center
05:47PM 38.0969 -91.5492 47° Northeast 164 189 7,000  Level Kansas City Center
05:48PM 38.1286 -91.5078 46° Northeast 163 188 7,000  Level Kansas City Center
05:49PM 38.1522 -91.4736 49° Northeast 162 186 7,000  Level Kansas City Center
05:50PM 38.1906 -91.4225 46° Northeast 165 190 7,000  Level Kansas City Center
05:51PM 38.2203 -91.3817 47° Northeast 167 192 7,000  Level Kansas City Center
05:52PM 38.2514 -91.3372 48° Northeast 169 194 7,000  Level Kansas City Center
05:53PM 38.2842 -91.2936 46° Northeast 170 196 7,000  Level Kansas City Center
05:54PM 38.3228 -91.2411 47° Northeast 170 196 7,000  Level Kansas City Center
05:55PM 38.3553 -91.1978 46° Northeast 170 196 7,000  Level Kansas City Center
05:56PM 38.3869 -91.1550 47° Northeast 168 193 7,000  Level Kansas City Center
05:57PM 38.4183 -91.1103 48° Northeast 168 193 7,000  Level Kansas City Center
05:58PM 38.4503 -91.0664 47° Northeast 168 193 7,000  Level Kansas City Center
05:59PM 38.4825 -91.0225 47° Northeast 170 196 7,000  Level Kansas City Center
06:00PM 38.5136 -90.9789 48° Northeast 168 193 7,000  Level Kansas City Center
06:01PM 38.5456 -90.9347 47° Northeast 169 194 7,000  Level Kansas City Center
06:02PM 38.5847 -90.8811 47° Northeast 171 197 7,000  Level Kansas City Center
06:03PM 38.6164 -90.8375 47° Northeast 169 194 7,000  Level Kansas City Center
06:04PM 38.6483 -90.7928 48° Northeast 168 193 7,000  Level Kansas City Center
06:05PM 38.6803 -90.7492 47° Northeast 168 193 7,000  Level Kansas City Center
06:06PM 38.7119 -90.7042 48° Northeast 169 194 7,000  Level Kansas City Center
06:07PM 38.7442 -90.6597 47° Northeast 169 194 7,000  Level Kansas City Center
06:08PM 38.7764 -90.6153 47° Northeast 169 194 7,000  Level Kansas City Center
06:09PM 38.8083 -90.5697 48° Northeast 170 196 7,000  Level Kansas City Center
06:10PM 38.8406 -90.5250 47° Northeast 170 196 7,000  Level Kansas City Center
06:12PM 38.8725 -90.4803 47° Northeast 170 196 7,000  Level Kansas City Center
06:13PM 38.9047 -90.4356 47° Northeast 169 194 7,000  Level Kansas City Center
06:14PM 38.9436 -90.3811 47° Northeast 171 197 7,000  Level Kansas City Center
06:15PM 38.9761 -90.3353 48° Northeast 172 198 7,000  Level Kansas City Center
06:16PM 39.0075 -90.2908 48° Northeast 170 196 7,000  Level Kansas City Center
06:17PM 39.0400 -90.2458 47° Northeast 171 197 7,000  Level Kansas City Center
06:18PM 39.0714 -90.1997 49° Northeast 171 197 7,000  Level Kansas City Center
06:19PM 39.1039 -90.1539 48° Northeast 173 199 7,000  Level Kansas City Center
06:20PM 39.1358 -90.1083 48° Northeast 172 198 7,000  Level Kansas City Center
06:21PM 39.1681 -90.0625 48° Northeast 172 198 7,000 -60 Level Kansas City Center
06:22PM 39.2061 -90.0083 48° Northeast 171 197 6,900 -60 Descending Kansas City Center
06:23PM 39.2386 -89.9611 48° Northeast 174 200 6,900  Level Kansas City Center
06:24PM 39.2708 -89.9156 48° Northeast 173 199 6,900  Level Kansas City Center
06:25PM 39.3036 -89.8697 47° Northeast 173 199 6,900  Level Kansas City Center
06:26PM 39.3347 -89.8239 49° Northeast 171 197 6,900  Level Kansas City Center
06:27PM 39.3664 -89.7775 49° Northeast 172 198 6,900  Level Kansas City Center
06:28PM 39.3986 -89.7339 46° Northeast 170 196 6,900  Level Kansas City Center
06:29PM 39.4300 -89.6883 48° Northeast 170 196 6,900  Level Kansas City Center
06:30PM 39.4667 -89.6358 48° Northeast 165 190 6,900  Level Kansas City Center
06:31PM 39.4975 -89.5914 48° Northeast 164 189 6,900  Level Kansas City Center
06:32PM 39.5275 -89.5489 48° Northeast 162 186 6,900  Level Kansas City Center
06:33PM 39.5578 -89.5036 49° Northeast 164 189 6,900  Level Kansas City Center
06:34PM 39.5886 -89.4600 47° Northeast 164 189 6,900  Level Kansas City Center
06:35PM 39.6192 -89.4150 49° Northeast 165 190 6,900  Level Kansas City Center
06:36PM 39.6492 -89.3703 49° Northeast 166 191 6,900  Level Kansas City Center
06:37PM 39.6867 -89.3172 47° Northeast 166 191 6,900  Level Kansas City Center
06:38PM 39.7169 -89.2731 48° Northeast 166 191 6,900  Level Kansas City Center
06:39PM 39.7478 -89.2278 48° Northeast 166 191 6,900  Level Kansas City Center
06:40PM 39.7786 -89.1831 48° Northeast 166 191 6,900  Level Kansas City Center
06:41PM 39.8092 -89.1389 48° Northeast 166 191 6,900  Level Kansas City Center
06:42PM 39.8394 -89.0947 48° Northeast 165 190 6,900  Level Kansas City Center
06:43PM 39.8700 -89.0500 48° Northeast 165 190 6,900  Level Kansas City Center
06:44PM 39.9000 -89.0050 49° Northeast 165 190 6,900  Level Kansas City Center
06:45PM 39.9367 -88.9508 49° Northeast 165 190 6,900  Level Kansas City Center
06:46PM 39.9664 -88.9072 48° Northeast 164 189 6,900  Level Kansas City Center
06:47PM 39.9956 -88.8650 48° Northeast 162 186 6,900  Level Kansas City Center
06:48PM 40.0275 -88.8192 48° Northeast 163 188 6,900  Level Kansas City Center
06:49PM 40.0561 -88.7750 50° Northeast 163 188 6,900  Level Kansas City Center
06:51PM 40.0878 -88.7289 48° Northeast 166 191 6,900  Level Kansas City Center
06:52PM 40.1164 -88.6850 50° Northeast 164 189 6,900  Level Kansas City Center
06:53PM 40.1519 -88.6333 48° Northeast 162 186 6,900  Level Chicago Center
06:54PM 40.1822 -88.5886 48° Northeast 163 188 6,900  Level Chicago Center
06:55PM 40.2128 -88.5447 48° Northeast 164 189 6,900  Level Chicago Center
06:56PM 40.2417 -88.5000 50° Northeast 164 189 6,900  Level Chicago Center
06:57PM 40.2775 -88.4442 50° Northeast 165 190 6,900  Level Chicago Center
06:58PM 40.3083 -88.3989 48° Northeast 165 190 6,900  Level Chicago Center
06:59PM 40.3408 -88.3503 49° Northeast 166 191 6,900  Level Chicago Center
07:00PM 40.3717 -88.3042 49° Northeast 168 193 6,900  Level Chicago Center
07:01PM 40.4019 -88.2589 49° Northeast 167 192 6,900  Level Chicago Center
07:02PM 40.4317 -88.2133 49° Northeast 166 191 6,900  Level Chicago Center
07:03PM 40.4617 -88.1683 49° Northeast 166 191 6,900  Level Chicago Center
07:04PM 40.4928 -88.1225 48° Northeast 167 192 6,900  Level Chicago Center
07:05PM 40.5225 -88.0750 51° Northeast 168 193 6,900  Level Chicago Center
07:06PM 40.5603 -88.0222 47° Northeast 168 193 6,900  Level Chicago Center
07:07PM 40.5900 -87.9739 51° Northeast 171 197 6,900  Level Chicago Center
07:08PM 40.6208 -87.9275 49° Northeast 170 196 6,900  Level Chicago Center
07:09PM 40.6511 -87.8822 49° Northeast 168 193 6,900  Level Chicago Center
07:10PM 40.6811 -87.8361 49° Northeast 167 192 6,900  Level Chicago Center
07:11PM 40.7111 -87.7894 50° Northeast 167 192 6,900  Level Chicago Center
07:12PM 40.7486 -87.7339 48° Northeast 169 194 6,900  Level Chicago Center
07:13PM 40.7794 -87.6872 49° Northeast 170 196 6,900  Level Chicago Center
07:14PM 40.8100 -87.6408 49° Northeast 168 193 6,900  Level Chicago Center
07:15PM 40.8411 -87.5933 49° Northeast 170 196 6,900  Level Chicago Center
07:16PM 40.8711 -87.5469 49° Northeast 169 194 6,900  Level Chicago Center
07:17PM 40.9011 -87.5000 50° Northeast 169 194 6,900  Level Chicago Center
07:18PM 40.9308 -87.4536 50° Northeast 167 192 6,900  Level Chicago Center
07:19PM 40.9675 -87.3986 49° Northeast 167 192 6,900  Level Chicago Center
07:20PM 40.9972 -87.3525 49° Northeast 166 191 6,900  Level Chicago Center
07:21PM 41.0275 -87.3058 49° Northeast 167 192 6,900  Level Chicago Center
07:22PM 41.0569 -87.2600 50° Northeast 166 191 6,900  Level Chicago Center
07:23PM 41.0872 -87.2131 49° Northeast 167 192 6,900  Level Chicago Center
07:24PM 41.1169 -87.1661 50° Northeast 168 193 6,900  Level Chicago Center
07:25PM 41.1458 -87.1214 49° Northeast 164 189 6,900  Level Chicago Center
07:26PM 41.1819 -87.0647 50° Northeast 167 192 7,000  Climbing Chicago Center
07:28PM 41.2119 -87.0189 49° Northeast 166 191 7,000  Level Chicago Center
07:29PM 41.2414 -86.9739 49° Northeast 164 189 7,000  Level Chicago Center
07:30PM 41.2703 -86.9261 51° Northeast 166 191 7,000  Level Chicago Center
07:31PM 41.2992 -86.8806 50° Northeast 163 188 7,000  Level Chicago Center
07:32PM 41.3281 -86.8361 49° Northeast 162 186 7,000  Level Chicago Center
07:33PM 41.3636 -86.7797 50° Northeast 165 190 7,000  Level Chicago Center
07:34PM 41.3925 -86.7336 50° Northeast 164 189 7,000  Level Chicago Center
07:35PM 41.4167 -86.6944 51° Northeast 163 188 7,000  Level Chicago Center
07:36PM 41.4514 -86.6378 51° Northeast 164 189 7,000  Level Chicago Center
07:37PM 41.4803 -86.5914 50° Northeast 164 189 7,000  Level Chicago Center
07:38PM 41.5097 -86.5458 49° Northeast 164 189 7,000  Level Chicago Center
07:39PM 41.5386 -86.4992 50° Northeast 163 188 7,000 -120 Level Chicago Center
07:40PM 41.5675 -86.4522 51° Northeast 165 190 6,800 -180 Descending Chicago Center
07:41PM 41.5986 -86.4031 50° Northeast 172 198 6,700 -180 Descending Chicago Center
07:42PM 41.6289 -86.3544 50° Northeast 170 196 6,500 -180 Descending Chicago Center
07:43PM 41.6600 -86.3039 51° Northeast 174 200 6,400 -180 Descending Chicago Center
07:44PM 41.6914 -86.2544 50° Northeast 174 200 6,200 -240 Descending Chicago Center
07:45PM 41.7286 -86.1944 50° Northeast 176 203 6,000 -180 Descending Chicago Center
07:46PM 41.7600 -86.1458 49° Northeast 173 199 5,900 -180 Descending Chicago Center
07:47PM 41.7903 -86.0947 52° Northeast 174 200 5,700 -240 Descending Chicago Center
07:48PM 41.8208 -86.0450 50° Northeast 174 200 5,500 -180 Descending Chicago Center
07:49PM 41.8517 -85.9956 50° Northeast 173 199 5,400 -240 Descending Chicago Center
07:50PM 41.8831 -85.9456 50° Northeast 174 200 5,100 -300 Descending Chicago Center
07:51PM 41.9142 -85.8961 50° Northeast 174 200 4,900 -300 Descending Chicago Center
07:52PM 41.9442 -85.8461 51° Northeast 172 198 4,600 -240 Descending Chicago Center
07:53PM 41.9747 -85.7983 49° Northeast 170 196 4,500 -180 Descending Chicago Center
07:54PM 42.0094 -85.7414 51° Northeast 165 190 4,300 -180 Descending Chicago Center
07:55PM 42.0386 -85.6936 51° Northeast 165 190 4,200 -180 Descending Chicago Center
07:56PM 42.0675 -85.6456 51° Northeast 165 190 4,000 -180 Descending Chicago Center
07:57PM 42.0967 -85.5975 51° Northeast 166 191 3,900 -180 Descending Chicago Center
07:58PM 42.1339 -85.5583 38° Northeast 168 193 3,700 -240 Descending Chicago Center
07:59PM 42.1681 -85.5164 42° Northeast 167 192 3,500 -240 Descending Chicago Center
08:00PM 42.2025 -85.4742 42° Northeast 167 192 3,300 -240 Descending Chicago Center
08:01PM 42.2353 -85.4292 45° Northeast 168 193 3,100 -300 Descending Chicago Center
08:02PM 42.2667 -85.3744 52° Northeast 170 196 2,800 -300 Descending Chicago Center
08:03PM 42.2939 -85.3219 55° Northeast 170 196 2,600 -300 Descending Chicago Center
08:04PM 42.3214 -85.2658 56° Northeast 166 191 2,200 -360 Descending Chicago Center
08:05PM 42.3425 -85.2278 53° Northeast 159 183 1,900 -300 Descending Chicago Center
08:07PM 42.3000 -85.2500 216° Southwest  Level FlightAware Approximate
08:14PM 42.3065 -85.2501 216° Southwest  Level Estimated